sensor_id;sensor_type;location;lat;lon;timestamp;P1;durP1;ratioP1;P2;durP2;ratioP2
3293;SDS011;1659;51.470;6.770;2024-02-04T00:01:39;29.53;;;15.60;;
3293;SDS011;1659;51.470;6.770;2024-02-04T00:04:06;24.70;;;12.43;;
3293;SDS011;1659;51.470;6.770;2024-02-04T00:06:34;21.50;;;10.63;;
3293;SDS011;1659;51.470;6.770;2024-02-04T00:09:00;13.30;;;8.77;;
3293;SDS011;1659;51.470;6.770;2024-02-04T00:11:28;15.63;;;8.43;;
3293;SDS011;1659;51.470;6.770;2024-02-04T00:13:55;11.00;;;7.40;;
3293;SDS011;1659;51.470;6.770;2024-02-04T00:16:22;12.90;;;7.80;;
3293;SDS011;1659;51.470;6.770;2024-02-04T00:18:49;19.17;;;7.83;;
3293;SDS011;1659;51.470;6.770;2024-02-04T00:21:15;10.50;;;5.40;;
3293;SDS011;1659;51.470;6.770;2024-02-04T00:23:43;6.00;;;5.30;;
3293;SDS011;1659;51.470;6.770;2024-02-04T00:26:10;8.03;;;5.10;;
3293;SDS011;1659;51.470;6.770;2024-02-04T00:28:36;13.03;;;7.27;;
3293;SDS011;1659;51.470;6.770;2024-02-04T00:31:04;8.83;;;5.83;;
3293;SDS011;1659;51.470;6.770;2024-02-04T00:33:31;8.57;;;5.43;;
3293;SDS011;1659;51.470;6.770;2024-02-04T00:35:57;12.10;;;6.33;;
3293;SDS011;1659;51.470;6.770;2024-02-04T00:38:24;10.10;;;6.50;;
3293;SDS011;1659;51.470;6.770;2024-02-04T00:40:52;9.57;;;6.20;;
3293;SDS011;1659;51.470;6.770;2024-02-04T00:43:19;11.07;;;5.13;;
3293;SDS011;1659;51.470;6.770;2024-02-04T00:45:46;8.50;;;5.30;;
3293;SDS011;1659;51.470;6.770;2024-02-04T00:48:12;6.47;;;4.93;;
3293;SDS011;1659;51.470;6.770;2024-02-04T00:50:39;7.07;;;4.50;;
3293;SDS011;1659;51.470;6.770;2024-02-04T00:53:04;10.00;;;5.40;;
3293;SDS011;1659;51.470;6.770;2024-02-04T00:55:31;10.57;;;5.77;;
3293;SDS011;1659;51.470;6.770;2024-02-04T00:57:59;9.67;;;6.40;;
3293;SDS011;1659;51.470;6.770;2024-02-04T01:00:27;9.20;;;6.07;;
3293;SDS011;1659;51.470;6.770;2024-02-04T01:02:53;9.00;;;5.97;;
3293;SDS011;1659;51.470;6.770;2024-02-04T01:05:20;9.47;;;6.10;;
3293;SDS011;1659;51.470;6.770;2024-02-04T01:07:47;11.83;;;7.23;;
3293;SDS011;1659;51.470;6.770;2024-02-04T01:10:13;10.47;;;6.53;;
3293;SDS011;1659;51.470;6.770;2024-02-04T01:12:40;12.30;;;6.97;;
3293;SDS011;1659;51.470;6.770;2024-02-04T01:15:08;10.20;;;7.33;;
3293;SDS011;1659;51.470;6.770;2024-02-04T01:17:35;13.00;;;7.20;;
3293;SDS011;1659;51.470;6.770;2024-02-04T01:20:01;12.10;;;7.50;;
3293;SDS011;1659;51.470;6.770;2024-02-04T01:22:30;18.10;;;8.60;;
3293;SDS011;1659;51.470;6.770;2024-02-04T01:24:57;17.10;;;9.20;;
3293;SDS011;1659;51.470;6.770;2024-02-04T01:27:23;14.50;;;9.00;;
3293;SDS011;1659;51.470;6.770;2024-02-04T01:29:50;22.47;;;10.60;;
3293;SDS011;1659;51.470;6.770;2024-02-04T01:32:19;20.13;;;10.67;;
3293;SDS011;1659;51.470;6.770;2024-02-04T01:34:46;19.73;;;10.00;;
3293;SDS011;1659;51.470;6.770;2024-02-04T01:37:12;23.93;;;11.03;;
3293;SDS011;1659;51.470;6.770;2024-02-04T01:39:39;21.63;;;11.93;;
3293;SDS011;1659;51.470;6.770;2024-02-04T01:42:06;27.60;;;14.87;;
3293;SDS011;1659;51.470;6.770;2024-02-04T01:44:33;23.03;;;12.30;;
3293;SDS011;1659;51.470;6.770;2024-02-04T01:46:59;15.90;;;10.30;;
3293;SDS011;1659;51.470;6.770;2024-02-04T01:49:27;25.07;;;13.80;;
3293;SDS011;1659;51.470;6.770;2024-02-04T01:51:54;25.43;;;10.77;;
3293;SDS011;1659;51.470;6.770;2024-02-04T01:54:21;12.70;;;7.63;;
3293;SDS011;1659;51.470;6.770;2024-02-04T01:56:51;16.57;;;8.20;;
3293;SDS011;1659;51.470;6.770;2024-02-04T01:59:18;15.30;;;8.13;;
3293;SDS011;1659;51.470;6.770;2024-02-04T02:01:45;21.03;;;10.70;;
3293;SDS011;1659;51.470;6.770;2024-02-04T02:04:13;20.50;;;10.93;;
3293;SDS011;1659;51.470;6.770;2024-02-04T02:06:41;18.40;;;9.33;;
3293;SDS011;1659;51.470;6.770;2024-02-04T02:09:08;18.07;;;10.90;;
3293;SDS011;1659;51.470;6.770;2024-02-04T02:11:37;18.00;;;8.90;;
3293;SDS011;1659;51.470;6.770;2024-02-04T02:14:08;15.17;;;8.90;;
3293;SDS011;1659;51.470;6.770;2024-02-04T02:16:39;12.77;;;7.50;;
3293;SDS011;1659;51.470;6.770;2024-02-04T02:19:10;13.30;;;7.97;;
3293;SDS011;1659;51.470;6.770;2024-02-04T02:21:50;15.13;;;7.90;;
3293;SDS011;1659;51.470;6.770;2024-02-04T02:24:28;15.47;;;8.87;;
3293;SDS011;1659;51.470;6.770;2024-02-04T02:26:58;15.07;;;8.73;;
3293;SDS011;1659;51.470;6.770;2024-02-04T02:29:25;15.93;;;8.37;;
3293;SDS011;1659;51.470;6.770;2024-02-04T02:31:51;16.83;;;9.00;;
3293;SDS011;1659;51.470;6.770;2024-02-04T02:34:18;19.73;;;9.30;;
3293;SDS011;1659;51.470;6.770;2024-02-04T02:36:48;14.97;;;8.97;;
3293;SDS011;1659;51.470;6.770;2024-02-04T02:39:22;14.63;;;8.43;;
3293;SDS011;1659;51.470;6.770;2024-02-04T02:41:54;13.60;;;8.33;;
3293;SDS011;1659;51.470;6.770;2024-02-04T02:44:23;17.80;;;9.30;;
3293;SDS011;1659;51.470;6.770;2024-02-04T02:46:51;17.73;;;9.30;;
3293;SDS011;1659;51.470;6.770;2024-02-04T02:49:20;18.53;;;9.40;;
3293;SDS011;1659;51.470;6.770;2024-02-04T02:51:47;19.90;;;10.00;;
3293;SDS011;1659;51.470;6.770;2024-02-04T02:54:13;19.57;;;10.20;;
3293;SDS011;1659;51.470;6.770;2024-02-04T02:56:40;23.00;;;10.00;;
3293;SDS011;1659;51.470;6.770;2024-02-04T02:59:08;20.10;;;10.10;;
3293;SDS011;1659;51.470;6.770;2024-02-04T03:01:38;22.83;;;10.07;;
3293;SDS011;1659;51.470;6.770;2024-02-04T03:04:05;19.43;;;11.10;;
3293;SDS011;1659;51.470;6.770;2024-02-04T03:06:31;21.07;;;11.30;;
3293;SDS011;1659;51.470;6.770;2024-02-04T03:08:58;19.30;;;10.47;;
3293;SDS011;1659;51.470;6.770;2024-02-04T03:11:25;19.17;;;10.90;;
3293;SDS011;1659;51.470;6.770;2024-02-04T03:13:51;28.03;;;13.13;;
3293;SDS011;1659;51.470;6.770;2024-02-04T03:16:19;21.17;;;11.40;;
3293;SDS011;1659;51.470;6.770;2024-02-04T03:18:45;23.43;;;11.80;;
3293;SDS011;1659;51.470;6.770;2024-02-04T03:21:12;25.30;;;12.50;;
3293;SDS011;1659;51.470;6.770;2024-02-04T03:23:40;24.80;;;12.30;;
3293;SDS011;1659;51.470;6.770;2024-02-04T03:26:08;26.97;;;13.60;;
3293;SDS011;1659;51.470;6.770;2024-02-04T03:28:34;24.90;;;12.70;;
3293;SDS011;1659;51.470;6.770;2024-02-04T03:31:01;34.87;;;17.70;;
3293;SDS011;1659;51.470;6.770;2024-02-04T03:33:29;38.30;;;20.20;;
3293;SDS011;1659;51.470;6.770;2024-02-04T03:35:56;30.97;;;16.50;;
3293;SDS011;1659;51.470;6.770;2024-02-04T03:38:22;33.10;;;16.37;;
3293;SDS011;1659;51.470;6.770;2024-02-04T03:40:49;32.90;;;15.50;;
3293;SDS011;1659;51.470;6.770;2024-02-04T03:43:15;29.00;;;14.57;;
3293;SDS011;1659;51.470;6.770;2024-02-04T03:45:42;33.13;;;15.60;;
3293;SDS011;1659;51.470;6.770;2024-02-04T03:48:08;36.30;;;15.23;;
3293;SDS011;1659;51.470;6.770;2024-02-04T03:50:36;31.13;;;15.23;;
3293;SDS011;1659;51.470;6.770;2024-02-04T03:53:03;31.50;;;15.87;;
3293;SDS011;1659;51.470;6.770;2024-02-04T03:55:30;37.63;;;15.60;;
3293;SDS011;1659;51.470;6.770;2024-02-04T03:57:57;27.90;;;13.77;;
3293;SDS011;1659;51.470;6.770;2024-02-04T04:00:24;28.40;;;12.50;;
3293;SDS011;1659;51.470;6.770;2024-02-04T04:02:50;27.23;;;13.87;;
3293;SDS011;1659;51.470;6.770;2024-02-04T04:05:17;31.20;;;13.67;;
3293;SDS011;1659;51.470;6.770;2024-02-04T04:07:45;26.10;;;13.23;;
3293;SDS011;1659;51.470;6.770;2024-02-04T04:10:11;23.47;;;13.57;;
3293;SDS011;1659;51.470;6.770;2024-02-04T04:12:38;28.33;;;14.23;;
3293;SDS011;1659;51.470;6.770;2024-02-04T04:15:05;27.97;;;14.07;;
3293;SDS011;1659;51.470;6.770;2024-02-04T04:17:32;27.00;;;13.40;;
3293;SDS011;1659;51.470;6.770;2024-02-04T04:19:58;31.87;;;14.30;;
3293;SDS011;1659;51.470;6.770;2024-02-04T04:22:25;28.70;;;12.93;;
3293;SDS011;1659;51.470;6.770;2024-02-04T04:24:53;31.83;;;14.17;;
3293;SDS011;1659;51.470;6.770;2024-02-04T04:27:19;30.80;;;13.90;;
3293;SDS011;1659;51.470;6.770;2024-02-04T04:29:46;27.83;;;15.30;;
3293;SDS011;1659;51.470;6.770;2024-02-04T04:32:12;26.10;;;13.00;;
3293;SDS011;1659;51.470;6.770;2024-02-04T04:34:39;29.83;;;14.60;;
3293;SDS011;1659;51.470;6.770;2024-02-04T04:37:05;34.70;;;15.70;;
3293;SDS011;1659;51.470;6.770;2024-02-04T04:39:32;30.57;;;14.77;;
3293;SDS011;1659;51.470;6.770;2024-02-04T04:42:00;29.87;;;15.37;;
3293;SDS011;1659;51.470;6.770;2024-02-04T04:44:27;35.13;;;16.40;;
3293;SDS011;1659;51.470;6.770;2024-02-04T04:46:53;29.07;;;14.83;;
3293;SDS011;1659;51.470;6.770;2024-02-04T04:49:20;30.33;;;17.20;;
3293;SDS011;1659;51.470;6.770;2024-02-04T04:51:46;27.83;;;15.47;;
3293;SDS011;1659;51.470;6.770;2024-02-04T04:54:13;36.00;;;15.70;;
3293;SDS011;1659;51.470;6.770;2024-02-04T04:56:39;32.17;;;14.13;;
3293;SDS011;1659;51.470;6.770;2024-02-04T04:59:09;34.60;;;15.30;;
3293;SDS011;1659;51.470;6.770;2024-02-04T05:01:36;35.83;;;16.67;;
3293;SDS011;1659;51.470;6.770;2024-02-04T05:04:02;34.00;;;15.17;;
3293;SDS011;1659;51.470;6.770;2024-02-04T05:06:29;30.93;;;16.00;;
3293;SDS011;1659;51.470;6.770;2024-02-04T05:08:56;30.70;;;15.80;;
3293;SDS011;1659;51.470;6.770;2024-02-04T05:11:22;26.13;;;15.03;;
3293;SDS011;1659;51.470;6.770;2024-02-04T05:13:49;29.63;;;14.50;;
3293;SDS011;1659;51.470;6.770;2024-02-04T05:16:17;34.33;;;15.70;;
3293;SDS011;1659;51.470;6.770;2024-02-04T05:18:43;33.43;;;14.57;;
3293;SDS011;1659;51.470;6.770;2024-02-04T05:21:10;31.17;;;13.63;;
3293;SDS011;1659;51.470;6.770;2024-02-04T05:23:36;31.77;;;13.73;;
3293;SDS011;1659;51.470;6.770;2024-02-04T05:26:03;30.30;;;14.53;;
3293;SDS011;1659;51.470;6.770;2024-02-04T05:28:30;29.57;;;15.07;;
3293;SDS011;1659;51.470;6.770;2024-02-04T05:30:57;30.43;;;14.57;;
3293;SDS011;1659;51.470;6.770;2024-02-04T05:33:24;26.50;;;12.80;;
3293;SDS011;1659;51.470;6.770;2024-02-04T05:35:51;31.27;;;13.10;;
3293;SDS011;1659;51.470;6.770;2024-02-04T05:38:17;33.43;;;15.00;;
3293;SDS011;1659;51.470;6.770;2024-02-04T05:40:44;22.77;;;12.33;;
3293;SDS011;1659;51.470;6.770;2024-02-04T05:43:11;32.70;;;14.70;;
3293;SDS011;1659;51.470;6.770;2024-02-04T05:45:37;37.90;;;14.53;;
3293;SDS011;1659;51.470;6.770;2024-02-04T05:48:06;33.50;;;14.97;;
3293;SDS011;1659;51.470;6.770;2024-02-04T05:50:34;34.63;;;14.60;;
3293;SDS011;1659;51.470;6.770;2024-02-04T05:53:01;32.70;;;15.17;;
3293;SDS011;1659;51.470;6.770;2024-02-04T05:55:28;34.63;;;16.70;;
3293;SDS011;1659;51.470;6.770;2024-02-04T05:57:54;36.63;;;19.10;;
3293;SDS011;1659;51.470;6.770;2024-02-04T06:00:21;34.13;;;16.83;;
3293;SDS011;1659;51.470;6.770;2024-02-04T06:02:51;56.47;;;22.00;;
3293;SDS011;1659;51.470;6.770;2024-02-04T06:05:17;48.03;;;21.60;;
3293;SDS011;1659;51.470;6.770;2024-02-04T06:07:45;57.10;;;21.70;;
3293;SDS011;1659;51.470;6.770;2024-02-04T06:10:12;48.30;;;20.07;;
3293;SDS011;1659;51.470;6.770;2024-02-04T06:12:38;45.23;;;20.73;;
3293;SDS011;1659;51.470;6.770;2024-02-04T06:15:11;49.27;;;20.93;;
3293;SDS011;1659;51.470;6.770;2024-02-04T06:17:38;53.80;;;22.70;;
3293;SDS011;1659;51.470;6.770;2024-02-04T06:20:05;48.10;;;21.27;;
3293;SDS011;1659;51.470;6.770;2024-02-04T06:22:33;61.33;;;24.80;;
3293;SDS011;1659;51.470;6.770;2024-02-04T06:25:01;49.23;;;22.90;;
3293;SDS011;1659;51.470;6.770;2024-02-04T06:27:29;54.47;;;23.93;;
3293;SDS011;1659;51.470;6.770;2024-02-04T06:29:55;56.60;;;25.50;;
3293;SDS011;1659;51.470;6.770;2024-02-04T06:32:22;61.37;;;24.80;;
3293;SDS011;1659;51.470;6.770;2024-02-04T06:34:49;52.53;;;21.50;;
3293;SDS011;1659;51.470;6.770;2024-02-04T06:37:16;60.93;;;25.37;;
3293;SDS011;1659;51.470;6.770;2024-02-04T06:39:42;64.80;;;24.87;;
3293;SDS011;1659;51.470;6.770;2024-02-04T06:42:10;53.70;;;23.13;;
3293;SDS011;1659;51.470;6.770;2024-02-04T06:44:37;44.70;;;22.20;;
3293;SDS011;1659;51.470;6.770;2024-02-04T06:47:04;60.63;;;22.70;;
3293;SDS011;1659;51.470;6.770;2024-02-04T06:49:30;55.70;;;22.70;;
3293;SDS011;1659;51.470;6.770;2024-02-04T06:51:57;58.70;;;22.70;;
3293;SDS011;1659;51.470;6.770;2024-02-04T06:54:23;58.47;;;22.57;;
3293;SDS011;1659;51.470;6.770;2024-02-04T06:56:51;56.63;;;21.00;;
3293;SDS011;1659;51.470;6.770;2024-02-04T06:59:19;54.30;;;20.93;;
3293;SDS011;1659;51.470;6.770;2024-02-04T07:01:45;41.60;;;18.70;;
3293;SDS011;1659;51.470;6.770;2024-02-04T07:04:13;40.20;;;16.53;;
3293;SDS011;1659;51.470;6.770;2024-02-04T07:06:40;43.17;;;18.63;;
3293;SDS011;1659;51.470;6.770;2024-02-04T07:09:06;49.83;;;18.47;;
3293;SDS011;1659;51.470;6.770;2024-02-04T07:11:33;41.97;;;19.60;;
3293;SDS011;1659;51.470;6.770;2024-02-04T07:13:59;44.40;;;18.57;;
3293;SDS011;1659;51.470;6.770;2024-02-04T07:16:27;47.70;;;17.90;;
3293;SDS011;1659;51.470;6.770;2024-02-04T07:18:54;46.53;;;15.93;;
3293;SDS011;1659;51.470;6.770;2024-02-04T07:21:21;41.23;;;17.80;;
3293;SDS011;1659;51.470;6.770;2024-02-04T07:23:47;38.63;;;15.50;;
3293;SDS011;1659;51.470;6.770;2024-02-04T07:26:14;39.60;;;15.10;;
3293;SDS011;1659;51.470;6.770;2024-02-04T07:28:40;30.80;;;16.63;;
3293;SDS011;1659;51.470;6.770;2024-02-04T07:31:07;41.57;;;17.60;;
3293;SDS011;1659;51.470;6.770;2024-02-04T07:33:35;45.97;;;22.83;;
3293;SDS011;1659;51.470;6.770;2024-02-04T07:36:01;43.00;;;17.70;;
3293;SDS011;1659;51.470;6.770;2024-02-04T07:38:28;33.30;;;15.30;;
3293;SDS011;1659;51.470;6.770;2024-02-04T07:40:55;32.30;;;16.23;;
3293;SDS011;1659;51.470;6.770;2024-02-04T07:43:23;37.73;;;15.13;;
3293;SDS011;1659;51.470;6.770;2024-02-04T07:45:50;28.53;;;13.13;;
3293;SDS011;1659;51.470;6.770;2024-02-04T07:48:17;32.43;;;15.20;;
3293;SDS011;1659;51.470;6.770;2024-02-04T07:50:45;27.73;;;12.27;;
3293;SDS011;1659;51.470;6.770;2024-02-04T07:53:12;31.53;;;12.27;;
3293;SDS011;1659;51.470;6.770;2024-02-04T07:55:39;31.57;;;11.73;;
3293;SDS011;1659;51.470;6.770;2024-02-04T07:58:05;23.20;;;9.93;;
3293;SDS011;1659;51.470;6.770;2024-02-04T08:00:32;16.67;;;8.93;;
3293;SDS011;1659;51.470;6.770;2024-02-04T08:02:58;15.97;;;9.20;;
3293;SDS011;1659;51.470;6.770;2024-02-04T08:05:25;15.30;;;8.20;;
3293;SDS011;1659;51.470;6.770;2024-02-04T08:07:53;15.10;;;7.93;;
3293;SDS011;1659;51.470;6.770;2024-02-04T08:10:20;15.47;;;7.53;;
3293;SDS011;1659;51.470;6.770;2024-02-04T08:12:46;13.83;;;7.77;;
3293;SDS011;1659;51.470;6.770;2024-02-04T08:15:16;19.03;;;8.33;;
3293;SDS011;1659;51.470;6.770;2024-02-04T08:17:42;11.70;;;6.77;;
3293;SDS011;1659;51.470;6.770;2024-02-04T08:20:09;16.50;;;8.30;;
3293;SDS011;1659;51.470;6.770;2024-02-04T08:22:36;19.20;;;8.77;;
3293;SDS011;1659;51.470;6.770;2024-02-04T08:25:06;20.40;;;9.10;;
3293;SDS011;1659;51.470;6.770;2024-02-04T08:27:35;17.90;;;9.13;;
3293;SDS011;1659;51.470;6.770;2024-02-04T08:30:02;23.20;;;8.00;;
3293;SDS011;1659;51.470;6.770;2024-02-04T08:32:29;10.90;;;6.03;;
3293;SDS011;1659;51.470;6.770;2024-02-04T08:34:56;14.63;;;7.33;;
3293;SDS011;1659;51.470;6.770;2024-02-04T08:37:23;13.27;;;6.23;;
3293;SDS011;1659;51.470;6.770;2024-02-04T08:39:49;10.80;;;6.20;;
3293;SDS011;1659;51.470;6.770;2024-02-04T08:42:16;8.10;;;5.40;;
3293;SDS011;1659;51.470;6.770;2024-02-04T08:44:43;9.53;;;5.97;;
3293;SDS011;1659;51.470;6.770;2024-02-04T08:47:09;9.97;;;6.27;;
3293;SDS011;1659;51.470;6.770;2024-02-04T08:49:39;16.40;;;7.57;;
3293;SDS011;1659;51.470;6.770;2024-02-04T08:52:05;15.33;;;8.60;;
3293;SDS011;1659;51.470;6.770;2024-02-04T08:54:32;19.60;;;10.53;;
3293;SDS011;1659;51.470;6.770;2024-02-04T08:56:58;25.40;;;12.20;;
3293;SDS011;1659;51.470;6.770;2024-02-04T08:59:26;23.27;;;11.13;;
3293;SDS011;1659;51.470;6.770;2024-02-04T09:01:53;17.90;;;10.60;;
3293;SDS011;1659;51.470;6.770;2024-02-04T09:04:19;25.90;;;12.10;;
3293;SDS011;1659;51.470;6.770;2024-02-04T09:06:46;28.07;;;12.57;;
3293;SDS011;1659;51.470;6.770;2024-02-04T09:09:12;31.27;;;14.00;;
3293;SDS011;1659;51.470;6.770;2024-02-04T09:11:39;29.37;;;14.37;;
3293;SDS011;1659;51.470;6.770;2024-02-04T09:14:06;26.83;;;13.50;;
3293;SDS011;1659;51.470;6.770;2024-02-04T09:16:34;29.73;;;14.30;;
3293;SDS011;1659;51.470;6.770;2024-02-04T09:19:03;34.47;;;14.90;;
3293;SDS011;1659;51.470;6.770;2024-02-04T09:21:30;34.67;;;13.70;;
3293;SDS011;1659;51.470;6.770;2024-02-04T09:23:57;29.00;;;14.20;;
3293;SDS011;1659;51.470;6.770;2024-02-04T09:26:23;28.43;;;12.70;;
3293;SDS011;1659;51.470;6.770;2024-02-04T09:28:50;33.73;;;13.43;;
3293;SDS011;1659;51.470;6.770;2024-02-04T09:31:16;33.03;;;14.07;;
3293;SDS011;1659;51.470;6.770;2024-02-04T09:33:44;28.27;;;12.53;;
3293;SDS011;1659;51.470;6.770;2024-02-04T09:36:11;21.80;;;10.80;;
3293;SDS011;1659;51.470;6.770;2024-02-04T09:38:37;23.13;;;9.57;;
3293;SDS011;1659;51.470;6.770;2024-02-04T09:41:04;25.93;;;13.07;;
3293;SDS011;1659;51.470;6.770;2024-02-04T09:43:31;34.07;;;16.50;;
3293;SDS011;1659;51.470;6.770;2024-02-04T09:45:58;22.63;;;11.60;;
3293;SDS011;1659;51.470;6.770;2024-02-04T09:48:25;22.07;;;10.97;;
3293;SDS011;1659;51.470;6.770;2024-02-04T09:50:57;24.13;;;10.90;;
3293;SDS011;1659;51.470;6.770;2024-02-04T09:53:27;24.07;;;11.33;;
3293;SDS011;1659;51.470;6.770;2024-02-04T09:55:58;17.37;;;10.23;;
3293;SDS011;1659;51.470;6.770;2024-02-04T09:58:27;28.90;;;11.27;;
3293;SDS011;1659;51.470;6.770;2024-02-04T10:00:54;25.83;;;12.57;;
3293;SDS011;1659;51.470;6.770;2024-02-04T10:03:21;23.17;;;11.47;;
3293;SDS011;1659;51.470;6.770;2024-02-04T10:05:47;22.20;;;11.60;;
3293;SDS011;1659;51.470;6.770;2024-02-04T10:08:15;21.40;;;9.90;;
3293;SDS011;1659;51.470;6.770;2024-02-04T10:10:41;25.10;;;14.63;;
3293;SDS011;1659;51.470;6.770;2024-02-04T10:13:08;29.33;;;15.80;;
3293;SDS011;1659;51.470;6.770;2024-02-04T10:15:35;29.97;;;12.10;;
3293;SDS011;1659;51.470;6.770;2024-02-04T10:18:02;21.83;;;11.90;;
3293;SDS011;1659;51.470;6.770;2024-02-04T10:20:30;26.27;;;12.60;;
3293;SDS011;1659;51.470;6.770;2024-02-04T10:22:57;26.70;;;13.90;;
3293;SDS011;1659;51.470;6.770;2024-02-04T10:25:25;23.97;;;11.03;;
3293;SDS011;1659;51.470;6.770;2024-02-04T10:27:53;22.57;;;10.43;;
3293;SDS011;1659;51.470;6.770;2024-02-04T10:30:20;24.63;;;11.40;;
3293;SDS011;1659;51.470;6.770;2024-02-04T10:32:46;20.37;;;9.93;;
3293;SDS011;1659;51.470;6.770;2024-02-04T10:35:13;16.73;;;9.50;;
3293;SDS011;1659;51.470;6.770;2024-02-04T10:37:40;21.23;;;10.63;;
3293;SDS011;1659;51.470;6.770;2024-02-04T10:40:07;23.47;;;11.20;;
3293;SDS011;1659;51.470;6.770;2024-02-04T10:42:35;22.07;;;11.67;;
3293;SDS011;1659;51.470;6.770;2024-02-04T10:45:06;17.47;;;10.23;;
3293;SDS011;1659;51.470;6.770;2024-02-04T10:47:36;26.07;;;11.90;;
3293;SDS011;1659;51.470;6.770;2024-02-04T10:50:04;21.77;;;11.60;;
3293;SDS011;1659;51.470;6.770;2024-02-04T10:52:36;19.43;;;11.67;;
3293;SDS011;1659;51.470;6.770;2024-02-04T10:55:05;19.37;;;10.93;;
3293;SDS011;1659;51.470;6.770;2024-02-04T10:57:35;22.27;;;11.73;;
3293;SDS011;1659;51.470;6.770;2024-02-04T11:00:03;19.80;;;9.70;;
3293;SDS011;1659;51.470;6.770;2024-02-04T11:02:33;12.60;;;6.90;;
3293;SDS011;1659;51.470;6.770;2024-02-04T11:05:01;11.53;;;6.80;;
3293;SDS011;1659;51.470;6.770;2024-02-04T11:07:29;12.50;;;6.67;;
3293;SDS011;1659;51.470;6.770;2024-02-04T11:09:58;10.83;;;6.90;;
3293;SDS011;1659;51.470;6.770;2024-02-04T11:12:25;11.13;;;6.17;;
3293;SDS011;1659;51.470;6.770;2024-02-04T11:14:55;11.03;;;7.17;;
3293;SDS011;1659;51.470;6.770;2024-02-04T11:20:25;12.47;;;6.47;;
3293;SDS011;1659;51.470;6.770;2024-02-04T11:23:19;11.33;;;6.33;;
3293;SDS011;1659;51.470;6.770;2024-02-04T11:25:54;10.30;;;5.90;;
3293;SDS011;1659;51.470;6.770;2024-02-04T11:28:23;8.33;;;5.70;;
3293;SDS011;1659;51.470;6.770;2024-02-04T11:30:52;7.17;;;5.57;;
3293;SDS011;1659;51.470;6.770;2024-02-04T11:33:19;12.80;;;6.07;;
3293;SDS011;1659;51.470;6.770;2024-02-04T11:35:46;11.27;;;6.70;;
3293;SDS011;1659;51.470;6.770;2024-02-04T11:38:16;20.27;;;9.53;;
3293;SDS011;1659;51.470;6.770;2024-02-04T11:40:45;18.30;;;9.63;;
3293;SDS011;1659;51.470;6.770;2024-02-04T11:43:13;18.07;;;10.33;;
3293;SDS011;1659;51.470;6.770;2024-02-04T11:45:41;17.03;;;9.40;;
3293;SDS011;1659;51.470;6.770;2024-02-04T11:48:10;20.10;;;9.43;;
3293;SDS011;1659;51.470;6.770;2024-02-04T11:50:37;12.23;;;8.30;;
3293;SDS011;1659;51.470;6.770;2024-02-04T11:53:05;13.30;;;8.77;;
3293;SDS011;1659;51.470;6.770;2024-02-04T11:55:33;13.30;;;8.03;;
3293;SDS011;1659;51.470;6.770;2024-02-04T11:58:00;19.87;;;9.20;;
3293;SDS011;1659;51.470;6.770;2024-02-04T12:00:26;18.50;;;10.90;;
3293;SDS011;1659;51.470;6.770;2024-02-04T12:02:59;18.50;;;11.00;;
3293;SDS011;1659;51.470;6.770;2024-02-04T12:05:28;21.93;;;10.57;;
3293;SDS011;1659;51.470;6.770;2024-02-04T12:07:57;27.23;;;9.93;;
3293;SDS011;1659;51.470;6.770;2024-02-04T12:10:23;18.67;;;9.10;;
3293;SDS011;1659;51.470;6.770;2024-02-04T12:12:52;13.60;;;7.20;;
3293;SDS011;1659;51.470;6.770;2024-02-04T12:15:19;18.10;;;8.73;;
3293;SDS011;1659;51.470;6.770;2024-02-04T12:17:46;15.93;;;7.97;;
3293;SDS011;1659;51.470;6.770;2024-02-04T12:20:13;18.97;;;9.80;;
3293;SDS011;1659;51.470;6.770;2024-02-04T12:22:41;20.03;;;10.10;;
3293;SDS011;1659;51.470;6.770;2024-02-04T12:25:08;20.80;;;9.03;;
3293;SDS011;1659;51.470;6.770;2024-02-04T12:27:34;24.30;;;12.27;;
3293;SDS011;1659;51.470;6.770;2024-02-04T12:30:02;24.30;;;11.60;;
3293;SDS011;1659;51.470;6.770;2024-02-04T12:32:30;21.20;;;9.50;;
3293;SDS011;1659;51.470;6.770;2024-02-04T12:34:57;18.17;;;9.40;;
3293;SDS011;1659;51.470;6.770;2024-02-04T12:37:23;21.93;;;7.67;;
3293;SDS011;1659;51.470;6.770;2024-02-04T12:39:53;12.10;;;6.80;;
3293;SDS011;1659;51.470;6.770;2024-02-04T12:42:19;14.83;;;6.83;;
3293;SDS011;1659;51.470;6.770;2024-02-04T12:44:46;16.03;;;9.10;;
3293;SDS011;1659;51.470;6.770;2024-02-04T12:47:13;13.47;;;7.90;;
3293;SDS011;1659;51.470;6.770;2024-02-04T12:49:40;13.47;;;7.60;;
3293;SDS011;1659;51.470;6.770;2024-02-04T12:52:07;11.33;;;5.93;;
3293;SDS011;1659;51.470;6.770;2024-02-04T12:54:41;10.70;;;6.73;;
3293;SDS011;1659;51.470;6.770;2024-02-04T12:57:10;13.57;;;8.43;;
3293;SDS011;1659;51.470;6.770;2024-02-04T12:59:47;13.43;;;8.27;;
3293;SDS011;1659;51.470;6.770;2024-02-04T13:02:14;28.90;;;12.23;;
3293;SDS011;1659;51.470;6.770;2024-02-04T13:04:41;91.47;;;37.40;;
3293;SDS011;1659;51.470;6.770;2024-02-04T13:07:08;20.90;;;11.20;;
3293;SDS011;1659;51.470;6.770;2024-02-04T13:09:36;24.07;;;11.43;;
3293;SDS011;1659;51.470;6.770;2024-02-04T13:12:03;20.50;;;12.00;;
3293;SDS011;1659;51.470;6.770;2024-02-04T13:14:32;19.90;;;10.47;;
3293;SDS011;1659;51.470;6.770;2024-02-04T13:16:58;22.10;;;9.63;;
3293;SDS011;1659;51.470;6.770;2024-02-04T13:19:28;19.80;;;7.90;;
3293;SDS011;1659;51.470;6.770;2024-02-04T13:21:58;14.37;;;7.03;;
3293;SDS011;1659;51.470;6.770;2024-02-04T13:24:25;12.23;;;7.33;;
3293;SDS011;1659;51.470;6.770;2024-02-04T13:26:51;11.60;;;6.47;;
3293;SDS011;1659;51.470;6.770;2024-02-04T13:29:18;14.80;;;7.10;;
3293;SDS011;1659;51.470;6.770;2024-02-04T13:31:46;13.93;;;7.70;;
3293;SDS011;1659;51.470;6.770;2024-02-04T13:34:12;11.90;;;6.70;;
3293;SDS011;1659;51.470;6.770;2024-02-04T13:36:39;11.87;;;7.17;;
3293;SDS011;1659;51.470;6.770;2024-02-04T13:39:05;15.23;;;8.33;;
3293;SDS011;1659;51.470;6.770;2024-02-04T13:41:33;14.03;;;7.63;;
3293;SDS011;1659;51.470;6.770;2024-02-04T13:44:00;13.07;;;7.00;;
3293;SDS011;1659;51.470;6.770;2024-02-04T13:46:27;18.20;;;8.40;;
3293;SDS011;1659;51.470;6.770;2024-02-04T13:48:55;25.43;;;8.67;;
3293;SDS011;1659;51.470;6.770;2024-02-04T13:51:22;14.27;;;7.20;;
3293;SDS011;1659;51.470;6.770;2024-02-04T13:53:48;13.30;;;7.83;;
3293;SDS011;1659;51.470;6.770;2024-02-04T13:56:15;11.33;;;7.33;;
3293;SDS011;1659;51.470;6.770;2024-02-04T13:58:44;19.47;;;8.37;;
3293;SDS011;1659;51.470;6.770;2024-02-04T14:01:10;15.53;;;7.60;;
3293;SDS011;1659;51.470;6.770;2024-02-04T14:03:38;13.30;;;8.60;;
3293;SDS011;1659;51.470;6.770;2024-02-04T14:06:06;13.20;;;8.37;;
3293;SDS011;1659;51.470;6.770;2024-02-04T14:08:33;15.37;;;8.57;;
3293;SDS011;1659;51.470;6.770;2024-02-04T14:11:00;15.07;;;9.50;;
3293;SDS011;1659;51.470;6.770;2024-02-04T14:13:27;16.10;;;9.67;;
3293;SDS011;1659;51.470;6.770;2024-02-04T14:15:53;19.03;;;9.70;;
3293;SDS011;1659;51.470;6.770;2024-02-04T14:18:20;19.57;;;10.60;;
3293;SDS011;1659;51.470;6.770;2024-02-04T14:20:46;18.20;;;10.37;;
3293;SDS011;1659;51.470;6.770;2024-02-04T14:23:14;19.43;;;11.07;;
3293;SDS011;1659;51.470;6.770;2024-02-04T14:25:41;18.03;;;9.57;;
3293;SDS011;1659;51.470;6.770;2024-02-04T14:28:08;22.80;;;10.70;;
3293;SDS011;1659;51.470;6.770;2024-02-04T14:30:34;21.13;;;12.73;;
3293;SDS011;1659;51.470;6.770;2024-02-04T14:33:01;19.97;;;11.43;;
3293;SDS011;1659;51.470;6.770;2024-02-04T14:35:28;27.70;;;12.00;;
3293;SDS011;1659;51.470;6.770;2024-02-04T14:37:55;24.30;;;13.20;;
3293;SDS011;1659;51.470;6.770;2024-02-04T14:40:23;23.63;;;14.60;;
3293;SDS011;1659;51.470;6.770;2024-02-04T14:42:50;24.57;;;11.80;;
3293;SDS011;1659;51.470;6.770;2024-02-04T14:45:16;23.53;;;11.63;;
3293;SDS011;1659;51.470;6.770;2024-02-04T14:47:43;19.20;;;10.83;;
3293;SDS011;1659;51.470;6.770;2024-02-04T14:50:10;25.13;;;12.97;;
3293;SDS011;1659;51.470;6.770;2024-02-04T14:52:38;19.30;;;10.80;;
3293;SDS011;1659;51.470;6.770;2024-02-04T14:55:04;26.10;;;10.90;;
3293;SDS011;1659;51.470;6.770;2024-02-04T14:57:32;32.23;;;13.30;;